sensor_id;sensor_type;location;lat;lon;timestamp;pressure;altitude;pressure_sealevel;temperature;humidity
16255;BME280;8235;52.198;9.904;2023-06-14T00:01:06;100904.44;;;16.70;51.64
16255;BME280;8235;52.198;9.904;2023-06-14T00:03:33;100909.94;;;16.69;51.77
16255;BME280;8235;52.198;9.904;2023-06-14T00:06:00;100905.66;;;16.66;52.05
16255;BME280;8235;52.198;9.904;2023-06-14T00:08:26;100908.53;;;16.64;52.00
16255;BME280;8235;52.198;9.904;2023-06-14T00:10:53;100915.81;;;16.62;52.14
16255;BME280;8235;52.198;9.904;2023-06-14T00:13:19;100919.63;;;16.60;51.98
16255;BME280;8235;52.198;9.904;2023-06-14T00:15:46;100921.59;;;16.58;51.97
16255;BME280;8235;52.198;9.904;2023-06-14T00:18:13;100923.41;;;16.57;51.99
16255;BME280;8235;52.198;9.904;2023-06-14T00:20:41;100926.38;;;16.54;51.93
16255;BME280;8235;52.198;9.904;2023-06-14T00:23:08;100926.88;;;16.48;52.06
16255;BME280;8235;52.198;9.904;2023-06-14T00:25:35;100928.38;;;16.41;52.08
16255;BME280;8235;52.198;9.904;2023-06-14T00:28:01;100930.09;;;16.31;52.34
16255;BME280;8235;52.198;9.904;2023-06-14T00:30:28;100926.34;;;16.22;52.75
16255;BME280;8235;52.198;9.904;2023-06-14T00:32:55;100927.72;;;16.17;53.14
16255;BME280;8235;52.198;9.904;2023-06-14T00:35:22;100927.25;;;16.12;53.44
16255;BME280;8235;52.198;9.904;2023-06-14T00:37:50;100926.66;;;16.08;53.62
16255;BME280;8235;52.198;9.904;2023-06-14T00:40:16;100925.91;;;16.06;53.81
16255;BME280;8235;52.198;9.904;2023-06-14T00:42:43;100917.97;;;16.05;54.08
16255;BME280;8235;52.198;9.904;2023-06-14T00:45:10;100928.13;;;16.01;53.86
16255;BME280;8235;52.198;9.904;2023-06-14T00:47:37;100925.66;;;15.98;53.98
16255;BME280;8235;52.198;9.904;2023-06-14T00:50:06;100926.06;;;15.93;54.09
16255;BME280;8235;52.198;9.904;2023-06-14T00:52:33;100931.19;;;15.85;53.93
16255;BME280;8235;52.198;9.904;2023-06-14T00:55:02;100935.47;;;15.77;53.75
16255;BME280;8235;52.198;9.904;2023-06-14T00:57:29;100932.31;;;15.72;54.32
16255;BME280;8235;52.198;9.904;2023-06-14T00:59:56;100930.00;;;15.67;54.78
16255;BME280;8235;52.198;9.904;2023-06-14T01:02:22;100930.97;;;15.66;55.17
16255;BME280;8235;52.198;9.904;2023-06-14T01:04:50;100941.94;;;15.63;55.05
16255;BME280;8235;52.198;9.904;2023-06-14T01:07:25;100935.84;;;15.61;55.32
16255;BME280;8235;52.198;9.904;2023-06-14T01:10:08;100940.94;;;15.53;54.69
16255;BME280;8235;52.198;9.904;2023-06-14T01:12:43;100939.22;;;15.41;54.67
16255;BME280;8235;52.198;9.904;2023-06-14T01:15:13;100939.44;;;15.26;54.97
16255;BME280;8235;52.198;9.904;2023-06-14T01:17:40;100938.47;;;15.16;55.50
16255;BME280;8235;52.198;9.904;2023-06-14T01:20:10;100938.09;;;15.10;55.98
16255;BME280;8235;52.198;9.904;2023-06-14T01:22:50;100938.69;;;15.02;56.33
16255;BME280;8235;52.198;9.904;2023-06-14T01:25:16;100943.66;;;14.96;56.73
16255;BME280;8235;52.198;9.904;2023-06-14T01:27:46;100939.84;;;14.87;57.02
16255;BME280;8235;52.198;9.904;2023-06-14T01:30:14;100943.88;;;14.81;57.57
16255;BME280;8235;52.198;9.904;2023-06-14T01:32:41;100939.72;;;14.77;57.86
16255;BME280;8235;52.198;9.904;2023-06-14T01:35:08;100940.91;;;14.73;57.83
16255;BME280;8235;52.198;9.904;2023-06-14T01:37:35;100944.78;;;14.69;57.67
16255;BME280;8235;52.198;9.904;2023-06-14T01:40:06;100944.41;;;14.63;58.30
16255;BME280;8235;52.198;9.904;2023-06-14T01:42:36;100945.63;;;14.58;58.29
16255;BME280;8235;52.198;9.904;2023-06-14T01:45:04;100940.47;;;14.55;58.37
16255;BME280;8235;52.198;9.904;2023-06-14T01:47:31;100957.75;;;14.51;58.37
16255;BME280;8235;52.198;9.904;2023-06-14T01:49:59;100948.47;;;14.44;58.08
16255;BME280;8235;52.198;9.904;2023-06-14T01:52:25;100947.06;;;14.39;58.45
16255;BME280;8235;52.198;9.904;2023-06-14T01:54:52;100955.44;;;14.34;58.56
16255;BME280;8235;52.198;9.904;2023-06-14T01:57:20;100948.75;;;14.29;59.17
16255;BME280;8235;52.198;9.904;2023-06-14T01:59:47;100957.97;;;14.24;59.43
16255;BME280;8235;52.198;9.904;2023-06-14T02:02:14;100954.44;;;14.24;59.93
16255;BME280;8235;52.198;9.904;2023-06-14T02:04:41;100953.47;;;14.25;59.67
16255;BME280;8235;52.198;9.904;2023-06-14T02:07:08;100948.22;;;14.23;59.84
16255;BME280;8235;52.198;9.904;2023-06-14T02:09:34;100950.03;;;14.23;60.40
16255;BME280;8235;52.198;9.904;2023-06-14T02:12:01;100951.00;;;14.22;60.09
16255;BME280;8235;52.198;9.904;2023-06-14T02:14:29;100951.84;;;14.22;60.33
16255;BME280;8235;52.198;9.904;2023-06-14T02:16:55;100952.81;;;14.21;59.94
16255;BME280;8235;52.198;9.904;2023-06-14T02:19:22;100954.75;;;14.19;60.23
16255;BME280;8235;52.198;9.904;2023-06-14T02:21:48;100944.91;;;14.20;60.50
16255;BME280;8235;52.198;9.904;2023-06-14T02:24:15;100947.69;;;14.18;60.12
16255;BME280;8235;52.198;9.904;2023-06-14T02:26:41;100942.56;;;14.15;59.90
16255;BME280;8235;52.198;9.904;2023-06-14T02:29:08;100956.09;;;14.14;60.54
16255;BME280;8235;52.198;9.904;2023-06-14T02:31:38;100956.09;;;14.14;60.78
16255;BME280;8235;52.198;9.904;2023-06-14T02:34:05;100956.09;;;14.14;60.75
16255;BME280;8235;52.198;9.904;2023-06-14T02:36:34;100958.00;;;14.12;60.70
16255;BME280;8235;52.198;9.904;2023-06-14T02:39:00;100958.88;;;14.12;60.25
16255;BME280;8235;52.198;9.904;2023-06-14T02:41:27;100959.09;;;14.09;60.24
16255;BME280;8235;52.198;9.904;2023-06-14T02:43:53;100973.56;;;14.07;60.20
16255;BME280;8235;52.198;9.904;2023-06-14T02:46:21;100971.53;;;13.98;59.93
16255;BME280;8235;52.198;9.904;2023-06-14T02:48:48;100971.34;;;13.88;60.46
16255;BME280;8235;52.198;9.904;2023-06-14T02:51:15;100978.22;;;13.79;60.29
16255;BME280;8235;52.198;9.904;2023-06-14T02:53:41;100972.44;;;13.73;60.97
16255;BME280;8235;52.198;9.904;2023-06-14T02:56:08;100977.38;;;13.66;61.14
16255;BME280;8235;52.198;9.904;2023-06-14T02:58:36;100987.56;;;13.61;61.35
16255;BME280;8235;52.198;9.904;2023-06-14T03:01:02;100985.09;;;13.58;61.93
16255;BME280;8235;52.198;9.904;2023-06-14T03:03:29;100984.25;;;13.58;62.25
16255;BME280;8235;52.198;9.904;2023-06-14T03:05:57;100989.59;;;13.58;62.87
16255;BME280;8235;52.198;9.904;2023-06-14T03:08:29;100987.88;;;13.57;62.43
16255;BME280;8235;52.198;9.904;2023-06-14T03:10:57;100991.19;;;13.47;61.82
16255;BME280;8235;52.198;9.904;2023-06-14T03:13:23;100982.97;;;13.38;62.23
16255;BME280;8235;52.198;9.904;2023-06-14T03:15:50;100991.81;;;13.26;62.48
16255;BME280;8235;52.198;9.904;2023-06-14T03:18:17;100988.09;;;13.15;63.21
16255;BME280;8235;52.198;9.904;2023-06-14T03:20:44;100996.59;;;13.08;63.81
16255;BME280;8235;52.198;9.904;2023-06-14T03:23:12;100991.69;;;13.02;64.49
16255;BME280;8235;52.198;9.904;2023-06-14T03:25:38;101000.75;;;12.99;64.99
16255;BME280;8235;52.198;9.904;2023-06-14T03:28:07;100996.56;;;12.95;65.09
16255;BME280;8235;52.198;9.904;2023-06-14T03:30:33;101008.22;;;12.94;65.69
16255;BME280;8235;52.198;9.904;2023-06-14T03:33:00;101010.13;;;12.92;65.41
16255;BME280;8235;52.198;9.904;2023-06-14T03:35:27;101009.72;;;12.85;65.29
16255;BME280;8235;52.198;9.904;2023-06-14T03:37:54;101007.53;;;12.78;65.51
16255;BME280;8235;52.198;9.904;2023-06-14T03:40:22;101009.78;;;12.71;66.00
16255;BME280;8235;52.198;9.904;2023-06-14T03:42:50;101013.63;;;12.67;67.02
16255;BME280;8235;52.198;9.904;2023-06-14T03:45:17;101011.78;;;12.68;67.14
16255;BME280;8235;52.198;9.904;2023-06-14T03:47:43;101016.19;;;12.69;67.53
16255;BME280;8235;52.198;9.904;2023-06-14T03:50:10;101021.34;;;12.72;68.07
16255;BME280;8235;52.198;9.904;2023-06-14T03:52:37;101028.16;;;12.76;67.91
16255;BME280;8235;52.198;9.904;2023-06-14T03:55:05;101029.97;;;12.75;66.96
16255;BME280;8235;52.198;9.904;2023-06-14T03:57:33;101029.56;;;12.69;66.38
16255;BME280;8235;52.198;9.904;2023-06-14T03:59:59;101030.03;;;12.61;66.64
16255;BME280;8235;52.198;9.904;2023-06-14T04:02:26;101033.09;;;12.55;66.43
16255;BME280;8235;52.198;9.904;2023-06-14T04:04:54;101041.44;;;12.50;67.20
16255;BME280;8235;52.198;9.904;2023-06-14T04:07:20;101035.34;;;12.48;67.91
16255;BME280;8235;52.198;9.904;2023-06-14T04:09:48;101037.06;;;12.49;68.78
16255;BME280;8235;52.198;9.904;2023-06-14T04:12:14;101034.19;;;12.52;68.82
16255;BME280;8235;52.198;9.904;2023-06-14T04:14:42;101035.69;;;12.57;68.86
16255;BME280;8235;52.198;9.904;2023-06-14T04:17:09;101035.47;;;12.60;69.02
16255;BME280;8235;52.198;9.904;2023-06-14T04:19:35;101029.09;;;12.62;69.18
16255;BME280;8235;52.198;9.904;2023-06-14T04:22:02;101032.41;;;12.66;69.26
16255;BME280;8235;52.198;9.904;2023-06-14T04:24:29;101034.91;;;12.69;69.12
16255;BME280;8235;52.198;9.904;2023-06-14T04:26:58;101045.25;;;12.73;69.16
16255;BME280;8235;52.198;9.904;2023-06-14T04:29:26;101038.84;;;12.76;69.54
16255;BME280;8235;52.198;9.904;2023-06-14T04:31:56;101044.84;;;12.79;69.34
16255;BME280;8235;52.198;9.904;2023-06-14T04:34:25;101050.00;;;12.82;69.87
16255;BME280;8235;52.198;9.904;2023-06-14T04:36:55;101051.53;;;12.86;69.59
16255;BME280;8235;52.198;9.904;2023-06-14T04:39:23;101048.75;;;12.88;69.75
16255;BME280;8235;52.198;9.904;2023-06-14T04:41:50;101059.22;;;12.91;70.04
16255;BME280;8235;52.198;9.904;2023-06-14T04:44:18;101059.97;;;12.93;70.53
16255;BME280;8235;52.198;9.904;2023-06-14T04:46:45;101061.50;;;12.97;70.50
16255;BME280;8235;52.198;9.904;2023-06-14T04:49:13;101058.63;;;13.00;70.80
16255;BME280;8235;52.198;9.904;2023-06-14T04:51:40;101063.78;;;13.03;71.57
16255;BME280;8235;52.198;9.904;2023-06-14T04:54:07;101072.22;;;13.10;71.54
16255;BME280;8235;52.198;9.904;2023-06-14T04:56:35;101062.19;;;13.13;71.84
16255;BME280;8235;52.198;9.904;2023-06-14T04:59:02;101066.41;;;13.17;71.57
16255;BME280;8235;52.198;9.904;2023-06-14T05:01:30;101065.22;;;13.22;71.92
16255;BME280;8235;52.198;9.904;2023-06-14T05:03:57;101070.25;;;13.26;72.01
16255;BME280;8235;52.198;9.904;2023-06-14T05:06:25;101074.22;;;13.33;72.25
16255;BME280;8235;52.198;9.904;2023-06-14T05:08:52;101069.44;;;13.38;72.01
16255;BME280;8235;52.198;9.904;2023-06-14T05:11:19;101071.66;;;13.44;71.77
16255;BME280;8235;52.198;9.904;2023-06-14T05:13:45;101078.44;;;13.50;72.01
16255;BME280;8235;52.198;9.904;2023-06-14T05:16:12;101082.41;;;13.57;72.15
16255;BME280;8235;52.198;9.904;2023-06-14T05:18:40;101076.50;;;13.65;71.44
16255;BME280;8235;52.198;9.904;2023-06-14T05:21:07;101074.19;;;13.73;71.50
16255;BME280;8235;52.198;9.904;2023-06-14T05:23:35;101078.97;;;13.80;71.33
16255;BME280;8235;52.198;9.904;2023-06-14T05:26:01;101078.25;;;13.91;71.45
16255;BME280;8235;52.198;9.904;2023-06-14T05:28:29;101086.25;;;14.04;70.89
16255;BME280;8235;52.198;9.904;2023-06-14T05:30:56;101087.19;;;14.15;71.04
16255;BME280;8235;52.198;9.904;2023-06-14T05:33:23;101087.31;;;14.27;70.09
16255;BME280;8235;52.198;9.904;2023-06-14T05:35:50;101084.50;;;14.41;70.42
16255;BME280;8235;52.198;9.904;2023-06-14T05:38:17;101083.50;;;14.54;69.80
16255;BME280;8235;52.198;9.904;2023-06-14T05:40:44;101092.13;;;14.71;69.78
16255;BME280;8235;52.198;9.904;2023-06-14T05:43:11;101092.84;;;14.85;69.01
16255;BME280;8235;52.198;9.904;2023-06-14T05:45:37;101088.28;;;14.99;67.73
16255;BME280;8235;52.198;9.904;2023-06-14T05:48:04;101096.13;;;15.13;67.80
16255;BME280;8235;52.198;9.904;2023-06-14T05:50:31;101095.84;;;15.28;66.87
16255;BME280;8235;52.198;9.904;2023-06-14T05:52:57;101101.25;;;15.40;66.61
16255;BME280;8235;52.198;9.904;2023-06-14T05:55:24;101098.59;;;15.51;65.52
16255;BME280;8235;52.198;9.904;2023-06-14T05:57:53;101097.91;;;15.60;65.68
16255;BME280;8235;52.198;9.904;2023-06-14T06:00:20;101087.84;;;15.75;65.31
16255;BME280;8235;52.198;9.904;2023-06-14T06:02:47;101096.97;;;15.83;64.23
16255;BME280;8235;52.198;9.904;2023-06-14T06:05:14;101092.63;;;15.93;64.30
16255;BME280;8235;52.198;9.904;2023-06-14T06:07:41;101095.91;;;16.08;63.71
16255;BME280;8235;52.198;9.904;2023-06-14T06:10:09;101098.25;;;16.24;63.22
16255;BME280;8235;52.198;9.904;2023-06-14T06:12:36;101095.91;;;16.42;63.08
16255;BME280;8235;52.198;9.904;2023-06-14T06:15:05;101090.13;;;16.57;62.40
16255;BME280;8235;52.198;9.904;2023-06-14T06:17:32;101095.88;;;16.75;61.96
16255;BME280;8235;52.198;9.904;2023-06-14T06:19:59;101095.47;;;16.91;61.41
16255;BME280;8235;52.198;9.904;2023-06-14T06:22:26;101094.72;;;17.00;60.16
16255;BME280;8235;52.198;9.904;2023-06-14T06:24:52;101101.28;;;17.07;59.66
16255;BME280;8235;52.198;9.904;2023-06-14T06:27:19;101098.94;;;17.14;59.84
16255;BME280;8235;52.198;9.904;2023-06-14T06:29:45;101098.16;;;17.23;59.52
16255;BME280;8235;52.198;9.904;2023-06-14T06:32:15;101099.84;;;17.35;59.63
16255;BME280;8235;52.198;9.904;2023-06-14T06:34:41;101104.03;;;17.49;59.23
16255;BME280;8235;52.198;9.904;2023-06-14T06:37:08;101104.81;;;17.60;58.95
16255;BME280;8235;52.198;9.904;2023-06-14T06:39:34;101108.34;;;17.72;58.68
16255;BME280;8235;52.198;9.904;2023-06-14T06:42:01;101110.56;;;17.88;58.52
16255;BME280;8235;52.198;9.904;2023-06-14T06:44:27;101110.75;;;17.96;57.07
16255;BME280;8235;52.198;9.904;2023-06-14T06:46:54;101104.97;;;18.00;56.45
16255;BME280;8235;52.198;9.904;2023-06-14T06:49:21;101109.97;;;18.05;56.67
16255;BME280;8235;52.198;9.904;2023-06-14T06:51:59;101121.91;;;18.12;56.57
16255;BME280;8235;52.198;9.904;2023-06-14T06:54:26;101116.56;;;18.22;56.19
16255;BME280;8235;52.198;9.904;2023-06-14T06:56:53;101112.91;;;18.32;55.34
16255;BME280;8235;52.198;9.904;2023-06-14T06:59:19;101126.31;;;18.44;55.50
16255;BME280;8235;52.198;9.904;2023-06-14T07:01:46;101133.19;;;18.57;55.54
16255;BME280;8235;52.198;9.904;2023-06-14T07:04:12;101126.97;;;18.66;54.17
16255;BME280;8235;52.198;9.904;2023-06-14T07:06:41;101135.25;;;18.75;54.18
16255;BME280;8235;52.198;9.904;2023-06-14T07:09:07;101133.28;;;18.86;53.87
16255;BME280;8235;52.198;9.904;2023-06-14T07:11:38;101140.13;;;19.00;53.08
16255;BME280;8235;52.198;9.904;2023-06-14T07:14:04;101134.47;;;19.13;53.01
16255;BME280;8235;52.198;9.904;2023-06-14T07:16:31;101138.75;;;19.25;52.15
16255;BME280;8235;52.198;9.904;2023-06-14T07:18:57;101139.31;;;19.38;51.61
16255;BME280;8235;52.198;9.904;2023-06-14T07:21:25;101134.91;;;19.47;50.77
16255;BME280;8235;52.198;9.904;2023-06-14T07:23:53;101143.03;;;19.56;50.40
16255;BME280;8235;52.198;9.904;2023-06-14T07:26:20;101141.91;;;19.59;49.61
16255;BME280;8235;52.198;9.904;2023-06-14T07:28:48;101146.16;;;19.61;49.83
16255;BME280;8235;52.198;9.904;2023-06-14T07:31:15;101143.91;;;19.66;50.09
16255;BME280;8235;52.198;9.904;2023-06-14T07:33:43;101144.88;;;19.75;49.74
16255;BME280;8235;52.198;9.904;2023-06-14T07:36:10;101141.44;;;19.83;49.44
16255;BME280;8235;52.198;9.904;2023-06-14T07:38:36;101139.56;;;19.93;49.42
16255;BME280;8235;52.198;9.904;2023-06-14T07:41:04;101142.25;;;20.02;49.07
16255;BME280;8235;52.198;9.904;2023-06-14T07:43:30;101136.97;;;20.10;49.20
16255;BME280;8235;52.198;9.904;2023-06-14T07:45:57;101131.41;;;20.22;49.10
16255;BME280;8235;52.198;9.904;2023-06-14T07:48:23;101143.72;;;20.34;49.17
16255;BME280;8235;52.198;9.904;2023-06-14T07:50:50;101144.03;;;20.40;48.45
16255;BME280;8235;52.198;9.904;2023-06-14T07:53:16;101133.34;;;20.39;48.32
16255;BME280;8235;52.198;9.904;2023-06-14T07:55:43;101135.34;;;20.37;48.08
16255;BME280;8235;52.198;9.904;2023-06-14T07:58:11;101135.91;;;20.40;47.81
16255;BME280;8235;52.198;9.904;2023-06-14T08:00:38;101137.16;;;20.46;47.97
16255;BME280;8235;52.198;9.904;2023-06-14T08:03:04;101137.13;;;20.56;47.86
16255;BME280;8235;52.198;9.904;2023-06-14T08:05:31;101136.34;;;20.63;48.05
16255;BME280;8235;52.198;9.904;2023-06-14T08:07:58;101134.47;;;20.73;47.63
16255;BME280;8235;52.198;9.904;2023-06-14T08:10:24;101141.66;;;20.83;47.47
16255;BME280;8235;52.198;9.904;2023-06-14T08:12:51;101135.66;;;20.89;46.49
16255;BME280;8235;52.198;9.904;2023-06-14T08:15:19;101135.91;;;20.95;47.39
16255;BME280;8235;52.198;9.904;2023-06-14T08:17:45;101135.84;;;21.05;47.11
16255;BME280;8235;52.198;9.904;2023-06-14T08:20:12;101136.94;;;21.12;46.85
16255;BME280;8235;52.198;9.904;2023-06-14T08:22:42;101129.66;;;21.12;46.11
16255;BME280;8235;52.198;9.904;2023-06-14T08:25:09;101135.28;;;21.19;45.61
16255;BME280;8235;52.198;9.904;2023-06-14T08:27:36;101143.53;;;21.27;45.37
16255;BME280;8235;52.198;9.904;2023-06-14T08:30:03;101149.19;;;21.34;45.19
16255;BME280;8235;52.198;9.904;2023-06-14T08:32:31;101132.88;;;21.43;45.42
16255;BME280;8235;52.198;9.904;2023-06-14T08:34:58;101133.25;;;21.48;44.58
16255;BME280;8235;52.198;9.904;2023-06-14T08:37:24;101137.03;;;21.56;44.77
16255;BME280;8235;52.198;9.904;2023-06-14T08:39:52;101146.78;;;21.66;44.96
16255;BME280;8235;52.198;9.904;2023-06-14T08:42:18;101144.66;;;21.78;44.84
16255;BME280;8235;52.198;9.904;2023-06-14T08:44:47;101142.69;;;21.88;44.62
16255;BME280;8235;52.198;9.904;2023-06-14T08:47:15;101140.75;;;21.98;44.16
16255;BME280;8235;52.198;9.904;2023-06-14T08:49:46;101143.19;;;22.01;43.16
16255;BME280;8235;52.198;9.904;2023-06-14T08:52:15;101140.13;;;22.04;43.17
16255;BME280;8235;52.198;9.904;2023-06-14T08:54:46;101135.56;;;22.05;42.95
16255;BME280;8235;52.198;9.904;2023-06-14T08:57:14;101136.41;;;22.05;42.63
16255;BME280;8235;52.198;9.904;2023-06-14T08:59:46;101141.53;;;22.08;42.90
16255;BME280;8235;52.198;9.904;2023-06-14T09:02:14;101138.19;;;22.14;42.72
16255;BME280;8235;52.198;9.904;2023-06-14T09:04:47;101140.72;;;22.16;42.28
16255;BME280;8235;52.198;9.904;2023-06-14T09:07:14;101140.50;;;22.09;42.81
16255;BME280;8235;52.198;9.904;2023-06-14T09:09:41;101143.59;;;22.14;43.16
16255;BME280;8235;52.198;9.904;2023-06-14T09:12:08;101135.84;;;22.20;42.44
16255;BME280;8235;52.198;9.904;2023-06-14T09:14:37;101141.31;;;22.28;42.36
16255;BME280;8235;52.198;9.904;2023-06-14T09:17:06;101144.78;;;22.38;42.01
16255;BME280;8235;52.198;9.904;2023-06-14T09:19:34;101145.31;;;22.49;42.60
16255;BME280;8235;52.198;9.904;2023-06-14T09:22:03;101148.91;;;22.58;41.93
16255;BME280;8235;52.198;9.904;2023-06-14T09:24:29;101145.72;;;22.63;41.03
16255;BME280;8235;52.198;9.904;2023-06-14T09:26:56;101157.28;;;22.65;41.32
16255;BME280;8235;52.198;9.904;2023-06-14T09:29:23;101146.28;;;22.74;41.37
16255;BME280;8235;52.198;9.904;2023-06-14T09:31:50;101161.63;;;22.83;41.49
16255;BME280;8235;52.198;9.904;2023-06-14T09:34:17;101153.50;;;22.92;40.96
16255;BME280;8235;52.198;9.904;2023-06-14T09:36:44;101164.72;;;22.97;40.74
16255;BME280;8235;52.198;9.904;2023-06-14T09:39:16;101167.75;;;22.94;40.74
16255;BME280;8235;52.198;9.904;2023-06-14T09:41:43;101156.41;;;22.90;40.88
16255;BME280;8235;52.198;9.904;2023-06-14T09:44:10;101153.69;;;22.90;40.80
16255;BME280;8235;52.198;9.904;2023-06-14T09:46:37;101153.84;;;22.97;41.44
16255;BME280;8235;52.198;9.904;2023-06-14T09:49:04;101145.75;;;23.05;40.78
16255;BME280;8235;52.198;9.904;2023-06-14T09:51:31;101153.03;;;23.12;40.47
16255;BME280;8235;52.198;9.904;2023-06-14T09:54:00;101139.16;;;23.24;40.54
16255;BME280;8235;52.198;9.904;2023-06-14T09:56:29;101143.72;;;23.31;39.46
16255;BME280;8235;52.198;9.904;2023-06-14T09:58:57;101142.75;;;23.40;40.01
16255;BME280;8235;52.198;9.904;2023-06-14T10:01:24;101140.69;;;23.50;40.00
16255;BME280;8235;52.198;9.904;2023-06-14T10:03:55;101138.03;;;23.59;39.45
16255;BME280;8235;52.198;9.904;2023-06-14T10:06:23;101136.69;;;23.63;39.20
16255;BME280;8235;52.198;9.904;2023-06-14T10:08:52;101128.50;;;23.71;39.11
16255;BME280;8235;52.198;9.904;2023-06-14T10:11:19;101135.63;;;23.72;38.85
16255;BME280;8235;52.198;9.904;2023-06-14T10:13:47;101131.91;;;23.73;38.16
16255;BME280;8235;52.198;9.904;2023-06-14T10:16:20;101126.63;;;23.79;39.29
16255;BME280;8235;52.198;9.904;2023-06-14T10:19:04;101119.31;;;23.88;38.66
16255;BME280;8235;52.198;9.904;2023-06-14T10:21:37;101118.63;;;23.94;37.97
16255;BME280;8235;52.198;9.904;2023-06-14T10:24:10;101121.00;;;23.97;37.71
16255;BME280;8235;52.198;9.904;2023-06-14T10:26:50;101118.28;;;23.97;37.47
16255;BME280;8235;52.198;9.904;2023-06-14T10:29:18;101118.63;;;23.94;38.04
16255;BME280;8235;52.198;9.904;2023-06-14T10:31:46;101119.47;;;23.95;37.69
16255;BME280;8235;52.198;9.904;2023-06-14T10:34:21;101119.28;;;24.04;38.37
16255;BME280;8235;52.198;9.904;2023-06-14T10:37:01;101121.28;;;24.18;38.24
16255;BME280;8235;52.198;9.904;2023-06-14T10:39:28;101109.91;;;24.31;37.90
16255;BME280;8235;52.198;9.904;2023-06-14T10:41:56;101104.56;;;24.38;37.73
16255;BME280;8235;52.198;9.904;2023-06-14T10:44:50;101108.75;;;24.56;37.44
16255;BME280;8235;52.198;9.904;2023-06-14T10:47:22;101100.88;;;24.70;37.72
16255;BME280;8235;52.198;9.904;2023-06-14T10:49:51;101098.28;;;24.76;36.95
16255;BME280;8235;52.198;9.904;2023-06-14T10:52:21;101101.69;;;24.78;37.27
16255;BME280;8235;52.198;9.904;2023-06-14T10:55:07;101093.81;;;24.83;37.14
16255;BME280;8235;52.198;9.904;2023-06-14T10:57:37;101087.28;;;24.92;37.33
16255;BME280;8235;52.198;9.904;2023-06-14T11:00:09;101088.84;;;24.95;37.79
16255;BME280;8235;52.198;9.904;2023-06-14T11:03:18;101084.72;;;24.99;37.12
16255;BME280;8235;52.198;9.904;2023-06-14T11:05:52;101091.69;;;25.02;37.42
16255;BME280;8235;52.198;9.904;2023-06-14T11:08:35;101084.91;;;24.98;36.80
16255;BME280;8235;52.198;9.904;2023-06-14T11:11:06;101090.34;;;24.98;37.02
16255;BME280;8235;52.198;9.904;2023-06-14T11:13:33;101089.16;;;25.00;37.69
16255;BME280;8235;52.198;9.904;2023-06-14T11:16:17;101087.59;;;25.06;37.31
16255;BME280;8235;52.198;9.904;2023-06-14T11:18:44;101081.81;;;25.01;36.65
16255;BME280;8235;52.198;9.904;2023-06-14T11:21:11;101087.13;;;24.94;36.21
16255;BME280;8235;52.198;9.904;2023-06-14T11:23:37;101082.56;;;24.86;37.06
16255;BME280;8235;52.198;9.904;2023-06-14T11:26:04;101085.81;;;24.82;37.11
16255;BME280;8235;52.198;9.904;2023-06-14T11:28:38;101081.09;;;24.76;36.78
16255;BME280;8235;52.198;9.904;2023-06-14T11:31:05;101075.88;;;24.66;37.06
16255;BME280;8235;52.198;9.904;2023-06-14T11:33:33;101078.78;;;24.65;37.89
16255;BME280;8235;52.198;9.904;2023-06-14T11:36:02;101075.91;;;24.58;37.52
16255;BME280;8235;52.198;9.904;2023-06-14T11:38:28;101064.50;;;24.54;37.50
16255;BME280;8235;52.198;9.904;2023-06-14T11:40:58;101065.56;;;24.53;37.77
16255;BME280;8235;52.198;9.904;2023-06-14T11:43:25;101067.78;;;24.50;38.39
16255;BME280;8235;52.198;9.904;2023-06-14T11:45:52;101068.47;;;24.52;38.88
16255;BME280;8235;52.198;9.904;2023-06-14T11:48:19;101067.06;;;24.56;38.48
16255;BME280;8235;52.198;9.904;2023-06-14T11:50:49;101071.63;;;24.64;38.67
16255;BME280;8235;52.198;9.904;2023-06-14T11:53:16;101064.31;;;24.64;37.40
16255;BME280;8235;52.198;9.904;2023-06-14T11:55:43;101071.44;;;24.65;37.86
16255;BME280;8235;52.198;9.904;2023-06-14T11:58:11;101067.03;;;24.64;37.69
16255;BME280;8235;52.198;9.904;2023-06-14T12:00:38;101075.88;;;24.66;38.28
16255;BME280;8235;52.198;9.904;2023-06-14T12:03:06;101068.56;;;24.67;38.40
16255;BME280;8235;52.198;9.904;2023-06-14T12:05:33;101070.44;;;24.66;38.22
16255;BME280;8235;52.198;9.904;2023-06-14T12:08:03;101074.53;;;24.62;37.96
16255;BME280;8235;52.198;9.904;2023-06-14T12:10:39;101067.72;;;24.58;37.76
16255;BME280;8235;52.198;9.904;2023-06-14T12:13:09;101064.72;;;24.53;37.33
16255;BME280;8235;52.198;9.904;2023-06-14T12:15:35;101059.63;;;24.50;38.02
16255;BME280;8235;52.198;9.904;2023-06-14T12:18:05;101068.13;;;24.47;37.64
16255;BME280;8235;52.198;9.904;2023-06-14T12:20:33;101054.69;;;24.45;38.12
16255;BME280;8235;52.198;9.904;2023-06-14T12:23:03;101064.41;;;24.48;38.32
16255;BME280;8235;52.198;9.904;2023-06-14T12:25:31;101054.34;;;24.48;38.54
16255;BME280;8235;52.198;9.904;2023-06-14T12:27:58;101053.31;;;24.49;39.05
16255;BME280;8235;52.198;9.904;2023-06-14T12:30:26;101060.41;;;24.58;38.77
16255;BME280;8235;52.198;9.904;2023-06-14T12:32:52;101047.63;;;24.67;38.39
16255;BME280;8235;52.198;9.904;2023-06-14T12:35:19;101048.03;;;24.79;38.45
16255;BME280;8235;52.198;9.904;2023-06-14T12:37:45;101044.72;;;24.91;39.18
16255;BME280;8235;52.198;9.904;2023-06-14T12:40:13;101043.50;;;25.02;38.28
16255;BME280;8235;52.198;9.904;2023-06-14T12:42:41;101053.13;;;25.13;38.48
16255;BME280;8235;52.198;9.904;2023-06-14T12:45:08;101059.53;;;25.20;37.40
16255;BME280;8235;52.198;9.904;2023-06-14T12:47:35;101047.13;;;25.17;36.53
16255;BME280;8235;52.198;9.904;2023-06-14T12:50:02;101053.13;;;25.13;36.30
16255;BME280;8235;52.198;9.904;2023-06-14T12:52:29;101049.53;;;25.12;36.67
16255;BME280;8235;52.198;9.904;2023-06-14T12:54:55;101055.84;;;25.13;36.78
16255;BME280;8235;52.198;9.904;2023-06-14T12:57:26;101049.34;;;25.14;37.09
16255;BME280;8235;52.198;9.904;2023-06-14T12:59:56;101043.84;;;25.22;37.80
16255;BME280;8235;52.198;9.904;2023-06-14T13:02:22;101041.72;;;25.32;38.03
16255;BME280;8235;52.198;9.904;2023-06-14T13:04:50;101040.53;;;25.49;37.59